General Mitchell International Airport
KMKE : now visible

Airfield :











YOU CAN JOIN US ON...

 
LOGIN :

Register | Disclaimer

   EN    FR    IT 

 









Legend :    VFR   Marginal VFR   IFR   Intensive IFR   Very Intensive IFR
Visi :
Ceiling :
>= 8 km
>= 3000ft
5 to 8 km
1000 to 3000 ft
1500m to 5 km
500 to 1000 ft
800 to 1500m
200 to 500 ft
< 800m
< 200 ft
Symbols :   Thunderstorms  Fog  Heavy snow  Heavy precipitations  Wind > 20 kt






- Airport Elevation : 723 ft
- IATA code : MKE


KMKE - General Mitchell International

CURRENT METAR :
  • 151652Z 27005KT 7SM BKN250 01/M06 A3034 RMK AO2 SLP286 T00061056

EXPIRED METARs :
  • 151639Z 26007KT 8SM SCT026 BKN250 M01/M06 A3035 RMK AO2 T10061061
  • 151552Z 26005KT 7SM BKN019 M02/M07 A3034 RMK AO2 SLP284 T10221072
  • 151452Z 26006KT 7SM OVC023 M03/M07 A3032 RMK AO2 SLP278 T10331072 53016

TAF KMKE
Valid from the 15 at 15:00 until the 16 at 18:00 UTC


151435Z 1515/1618 26006KT P6SM OVC025
FM151600 VRB03KT P6SM SCT030
FM160300 05005KT P6SM BKN120
FM160900 10006KT P6SM BKN023
FM161100 12006KT P6SM BKN019



MET'MAP, your aeronautical weather chart ! - Copyright ORBIFLY December 2007 - Disclaimer

ORBIFLY MET'MAP TEAM :

Programming & Development : Alexandra Zaïnal
Concept & Development : Baudouin d'Aumeries
Co-Development & Prog : Marc-Olivier Méhu
Technical & hardware support : Manuel Goepfert

Contact : metmap@orbifly.com




SOURCES & CREDITS :

   NOAA       Earth
Advisory